sensor_id;sensor_type;location;lat;lon;timestamp;P1;durP1;ratioP1;P2;durP2;ratioP2
8927;SDS011;4499;48.304;11.902;2023-08-12T00:01:10;6.67;;;4.67;;
8927;SDS011;4499;48.304;11.902;2023-08-12T00:03:38;5.17;;;4.20;;
8927;SDS011;4499;48.304;11.902;2023-08-12T00:06:06;4.90;;;4.40;;
8927;SDS011;4499;48.304;11.902;2023-08-12T00:08:35;6.87;;;4.43;;
8927;SDS011;4499;48.304;11.902;2023-08-12T00:11:04;7.07;;;4.53;;
8927;SDS011;4499;48.304;11.902;2023-08-12T00:13:32;5.30;;;4.77;;
8927;SDS011;4499;48.304;11.902;2023-08-12T00:16:00;8.53;;;4.67;;
8927;SDS011;4499;48.304;11.902;2023-08-12T00:18:28;7.57;;;4.70;;
8927;SDS011;4499;48.304;11.902;2023-08-12T00:21:05;6.07;;;4.63;;
8927;SDS011;4499;48.304;11.902;2023-08-12T00:23:37;7.07;;;4.67;;
8927;SDS011;4499;48.304;11.902;2023-08-12T00:26:07;11.33;;;4.90;;
8927;SDS011;4499;48.304;11.902;2023-08-12T00:28:35;8.57;;;4.87;;
8927;SDS011;4499;48.304;11.902;2023-08-12T00:31:04;8.47;;;4.93;;
8927;SDS011;4499;48.304;11.902;2023-08-12T00:33:32;5.03;;;4.53;;
8927;SDS011;4499;48.304;11.902;2023-08-12T00:36:00;7.73;;;4.77;;
8927;SDS011;4499;48.304;11.902;2023-08-12T00:38:29;8.10;;;4.80;;
8927;SDS011;4499;48.304;11.902;2023-08-12T00:40:57;7.73;;;5.00;;
8927;SDS011;4499;48.304;11.902;2023-08-12T00:43:26;6.03;;;4.93;;
8927;SDS011;4499;48.304;11.902;2023-08-12T00:45:54;5.10;;;4.40;;
8927;SDS011;4499;48.304;11.902;2023-08-12T00:48:23;7.10;;;5.00;;
8927;SDS011;4499;48.304;11.902;2023-08-12T00:50:51;6.93;;;4.60;;
8927;SDS011;4499;48.304;11.902;2023-08-12T00:53:20;6.33;;;4.60;;
8927;SDS011;4499;48.304;11.902;2023-08-12T00:55:48;6.80;;;4.77;;
8927;SDS011;4499;48.304;11.902;2023-08-12T00:58:16;7.13;;;4.90;;
8927;SDS011;4499;48.304;11.902;2023-08-12T01:00:46;7.87;;;4.60;;
8927;SDS011;4499;48.304;11.902;2023-08-12T01:03:14;6.40;;;4.53;;
8927;SDS011;4499;48.304;11.902;2023-08-12T01:05:43;7.30;;;4.83;;
8927;SDS011;4499;48.304;11.902;2023-08-12T01:08:12;8.27;;;5.00;;
8927;SDS011;4499;48.304;11.902;2023-08-12T01:10:42;4.90;;;4.40;;
8927;SDS011;4499;48.304;11.902;2023-08-12T01:13:17;6.27;;;5.10;;
8927;SDS011;4499;48.304;11.902;2023-08-12T01:15:55;7.53;;;5.70;;
8927;SDS011;4499;48.304;11.902;2023-08-12T01:18:26;6.40;;;5.23;;
8927;SDS011;4499;48.304;11.902;2023-08-12T01:20:55;8.10;;;5.80;;
8927;SDS011;4499;48.304;11.902;2023-08-12T01:23:24;7.43;;;5.20;;
8927;SDS011;4499;48.304;11.902;2023-08-12T01:25:53;6.03;;;5.17;;
8927;SDS011;4499;48.304;11.902;2023-08-12T01:28:21;6.43;;;5.67;;
8927;SDS011;4499;48.304;11.902;2023-08-12T01:30:50;6.57;;;5.33;;
8927;SDS011;4499;48.304;11.902;2023-08-12T01:33:26;7.07;;;5.50;;
8927;SDS011;4499;48.304;11.902;2023-08-12T01:36:04;6.93;;;5.57;;
8927;SDS011;4499;48.304;11.902;2023-08-12T01:38:38;8.33;;;5.93;;
8927;SDS011;4499;48.304;11.902;2023-08-12T01:41:08;6.33;;;5.43;;
8927;SDS011;4499;48.304;11.902;2023-08-12T01:43:37;7.67;;;5.90;;
8927;SDS011;4499;48.304;11.902;2023-08-12T01:46:05;6.80;;;5.90;;
8927;SDS011;4499;48.304;11.902;2023-08-12T01:48:34;6.63;;;5.93;;
8927;SDS011;4499;48.304;11.902;2023-08-12T01:51:02;7.00;;;5.77;;
8927;SDS011;4499;48.304;11.902;2023-08-12T01:53:31;7.83;;;6.17;;
8927;SDS011;4499;48.304;11.902;2023-08-12T01:56:00;7.70;;;6.87;;
8927;SDS011;4499;48.304;11.902;2023-08-12T01:58:28;9.33;;;6.97;;
8927;SDS011;4499;48.304;11.902;2023-08-12T02:00:56;8.53;;;7.50;;
8927;SDS011;4499;48.304;11.902;2023-08-12T02:03:24;9.73;;;7.70;;
8927;SDS011;4499;48.304;11.902;2023-08-12T02:05:53;7.93;;;6.73;;
8927;SDS011;4499;48.304;11.902;2023-08-12T02:08:21;9.27;;;7.70;;
8927;SDS011;4499;48.304;11.902;2023-08-12T02:10:49;8.53;;;7.40;;
8927;SDS011;4499;48.304;11.902;2023-08-12T02:13:19;10.33;;;7.67;;
8927;SDS011;4499;48.304;11.902;2023-08-12T02:15:47;10.33;;;7.67;;
8927;SDS011;4499;48.304;11.902;2023-08-12T02:18:15;9.80;;;7.20;;
8927;SDS011;4499;48.304;11.902;2023-08-12T02:20:46;10.17;;;7.80;;
8927;SDS011;4499;48.304;11.902;2023-08-12T02:23:15;8.03;;;7.30;;
8927;SDS011;4499;48.304;11.902;2023-08-12T02:25:43;9.30;;;7.17;;
8927;SDS011;4499;48.304;11.902;2023-08-12T02:28:11;8.63;;;7.73;;
8927;SDS011;4499;48.304;11.902;2023-08-12T02:30:42;9.80;;;8.10;;
8927;SDS011;4499;48.304;11.902;2023-08-12T02:33:10;9.10;;;8.20;;
8927;SDS011;4499;48.304;11.902;2023-08-12T02:35:39;10.47;;;8.77;;
8927;SDS011;4499;48.304;11.902;2023-08-12T02:38:07;9.13;;;8.23;;
8927;SDS011;4499;48.304;11.902;2023-08-12T02:40:35;9.27;;;8.37;;
8927;SDS011;4499;48.304;11.902;2023-08-12T02:43:03;9.93;;;8.60;;
8927;SDS011;4499;48.304;11.902;2023-08-12T02:45:31;9.10;;;8.10;;
8927;SDS011;4499;48.304;11.902;2023-08-12T02:48:01;9.73;;;8.50;;
8927;SDS011;4499;48.304;11.902;2023-08-12T02:50:29;8.70;;;7.80;;
8927;SDS011;4499;48.304;11.902;2023-08-12T02:52:57;9.47;;;7.80;;
8927;SDS011;4499;48.304;11.902;2023-08-12T02:55:25;9.47;;;8.17;;
8927;SDS011;4499;48.304;11.902;2023-08-12T02:57:54;8.97;;;8.07;;
8927;SDS011;4499;48.304;11.902;2023-08-12T03:00:22;11.50;;;8.30;;
8927;SDS011;4499;48.304;11.902;2023-08-12T03:02:50;9.63;;;8.33;;
8927;SDS011;4499;48.304;11.902;2023-08-12T03:05:20;9.30;;;8.40;;
8927;SDS011;4499;48.304;11.902;2023-08-12T03:07:48;9.47;;;8.43;;
8927;SDS011;4499;48.304;11.902;2023-08-12T03:10:18;10.33;;;7.97;;
8927;SDS011;4499;48.304;11.902;2023-08-12T03:12:46;10.50;;;8.30;;
8927;SDS011;4499;48.304;11.902;2023-08-12T03:15:14;9.90;;;8.20;;
8927;SDS011;4499;48.304;11.902;2023-08-12T03:17:42;10.03;;;8.30;;
8927;SDS011;4499;48.304;11.902;2023-08-12T03:20:10;9.53;;;8.60;;
8927;SDS011;4499;48.304;11.902;2023-08-12T03:22:40;9.87;;;8.63;;
8927;SDS011;4499;48.304;11.902;2023-08-12T03:25:08;9.47;;;8.47;;
8927;SDS011;4499;48.304;11.902;2023-08-12T03:27:36;9.87;;;8.20;;
8927;SDS011;4499;48.304;11.902;2023-08-12T03:30:05;10.27;;;8.33;;
8927;SDS011;4499;48.304;11.902;2023-08-12T03:32:34;13.50;;;8.80;;
8927;SDS011;4499;48.304;11.902;2023-08-12T03:35:02;11.10;;;8.90;;
8927;SDS011;4499;48.304;11.902;2023-08-12T03:37:31;10.10;;;8.60;;
8927;SDS011;4499;48.304;11.902;2023-08-12T03:40:00;10.53;;;9.37;;
8927;SDS011;4499;48.304;11.902;2023-08-12T03:42:29;10.03;;;8.67;;
8927;SDS011;4499;48.304;11.902;2023-08-12T03:44:57;9.90;;;8.40;;
8927;SDS011;4499;48.304;11.902;2023-08-12T03:47:25;11.33;;;8.70;;
8927;SDS011;4499;48.304;11.902;2023-08-12T03:49:54;9.60;;;8.10;;
8927;SDS011;4499;48.304;11.902;2023-08-12T03:52:22;9.07;;;8.17;;
8927;SDS011;4499;48.304;11.902;2023-08-12T03:54:50;8.63;;;7.73;;
8927;SDS011;4499;48.304;11.902;2023-08-12T03:57:20;9.27;;;8.20;;
8927;SDS011;4499;48.304;11.902;2023-08-12T03:59:48;9.33;;;7.90;;
8927;SDS011;4499;48.304;11.902;2023-08-12T04:02:16;10.33;;;7.53;;
8927;SDS011;4499;48.304;11.902;2023-08-12T04:04:44;9.83;;;8.50;;
8927;SDS011;4499;48.304;11.902;2023-08-12T04:07:13;9.73;;;8.53;;
8927;SDS011;4499;48.304;11.902;2023-08-12T04:09:41;9.30;;;8.30;;
8927;SDS011;4499;48.304;11.902;2023-08-12T04:12:09;12.30;;;8.90;;
8927;SDS011;4499;48.304;11.902;2023-08-12T04:14:38;13.30;;;8.90;;
8927;SDS011;4499;48.304;11.902;2023-08-12T04:17:07;9.30;;;8.03;;
8927;SDS011;4499;48.304;11.902;2023-08-12T04:19:36;10.40;;;8.70;;
8927;SDS011;4499;48.304;11.902;2023-08-12T04:22:04;10.73;;;8.70;;
8927;SDS011;4499;48.304;11.902;2023-08-12T04:24:32;9.03;;;8.13;;
8927;SDS011;4499;48.304;11.902;2023-08-12T04:27:00;9.83;;;8.80;;
8927;SDS011;4499;48.304;11.902;2023-08-12T04:29:28;10.00;;;8.57;;
8927;SDS011;4499;48.304;11.902;2023-08-12T04:31:58;10.57;;;8.60;;
8927;SDS011;4499;48.304;11.902;2023-08-12T04:34:26;9.73;;;8.70;;
8927;SDS011;4499;48.304;11.902;2023-08-12T04:36:54;9.50;;;8.50;;
8927;SDS011;4499;48.304;11.902;2023-08-12T04:39:22;8.50;;;7.63;;
8927;SDS011;4499;48.304;11.902;2023-08-12T04:41:50;9.80;;;8.07;;
8927;SDS011;4499;48.304;11.902;2023-08-12T04:44:18;13.67;;;8.90;;
8927;SDS011;4499;48.304;11.902;2023-08-12T04:46:46;9.07;;;8.17;;
8927;SDS011;4499;48.304;11.902;2023-08-12T04:49:16;9.30;;;8.40;;
8927;SDS011;4499;48.304;11.902;2023-08-12T04:51:44;9.23;;;8.20;;
8927;SDS011;4499;48.304;11.902;2023-08-12T04:54:12;10.17;;;8.47;;
8927;SDS011;4499;48.304;11.902;2023-08-12T04:56:40;10.20;;;8.83;;
8927;SDS011;4499;48.304;11.902;2023-08-12T04:59:08;9.23;;;7.93;;
8927;SDS011;4499;48.304;11.902;2023-08-12T05:01:37;9.33;;;8.10;;
8927;SDS011;4499;48.304;11.902;2023-08-12T05:04:25;10.43;;;8.30;;
8927;SDS011;4499;48.304;11.902;2023-08-12T05:06:53;11.07;;;8.07;;
8927;SDS011;4499;48.304;11.902;2023-08-12T05:09:21;8.50;;;7.70;;
8927;SDS011;4499;48.304;11.902;2023-08-12T05:11:49;10.47;;;8.10;;
8927;SDS011;4499;48.304;11.902;2023-08-12T05:14:17;9.70;;;8.00;;
8927;SDS011;4499;48.304;11.902;2023-08-12T05:16:46;8.50;;;7.53;;
8927;SDS011;4499;48.304;11.902;2023-08-12T05:19:14;10.27;;;7.43;;
8927;SDS011;4499;48.304;11.902;2023-08-12T05:21:43;11.60;;;7.97;;
8927;SDS011;4499;48.304;11.902;2023-08-12T05:24:11;9.70;;;7.80;;
8927;SDS011;4499;48.304;11.902;2023-08-12T05:26:39;8.70;;;7.57;;
8927;SDS011;4499;48.304;11.902;2023-08-12T05:29:07;8.63;;;7.47;;
8927;SDS011;4499;48.304;11.902;2023-08-12T05:31:35;8.83;;;7.30;;
8927;SDS011;4499;48.304;11.902;2023-08-12T05:34:04;8.23;;;7.37;;
8927;SDS011;4499;48.304;11.902;2023-08-12T05:36:32;10.00;;;7.30;;
8927;SDS011;4499;48.304;11.902;2023-08-12T05:39:02;7.97;;;7.17;;
8927;SDS011;4499;48.304;11.902;2023-08-12T05:41:30;9.43;;;7.43;;
8927;SDS011;4499;48.304;11.902;2023-08-12T05:43:58;9.07;;;7.43;;
8927;SDS011;4499;48.304;11.902;2023-08-12T05:46:26;10.13;;;7.73;;
8927;SDS011;4499;48.304;11.902;2023-08-12T05:48:54;7.70;;;6.90;;
8927;SDS011;4499;48.304;11.902;2023-08-12T05:51:23;8.43;;;7.60;;
8927;SDS011;4499;48.304;11.902;2023-08-12T05:53:55;8.13;;;7.27;;
8927;SDS011;4499;48.304;11.902;2023-08-12T05:56:25;10.40;;;6.87;;
8927;SDS011;4499;48.304;11.902;2023-08-12T05:58:53;8.40;;;7.10;;
8927;SDS011;4499;48.304;11.902;2023-08-12T06:01:22;7.90;;;7.03;;
8927;SDS011;4499;48.304;11.902;2023-08-12T06:03:50;9.13;;;7.10;;
8927;SDS011;4499;48.304;11.902;2023-08-12T06:06:18;7.13;;;6.30;;
8927;SDS011;4499;48.304;11.902;2023-08-12T06:08:48;7.27;;;6.57;;
8927;SDS011;4499;48.304;11.902;2023-08-12T06:11:15;7.07;;;6.30;;
8927;SDS011;4499;48.304;11.902;2023-08-12T06:13:44;9.27;;;5.70;;
8927;SDS011;4499;48.304;11.902;2023-08-12T06:16:13;6.13;;;5.53;;
8927;SDS011;4499;48.304;11.902;2023-08-12T06:18:41;7.17;;;4.80;;
8927;SDS011;4499;48.304;11.902;2023-08-12T06:21:09;6.13;;;4.90;;
8927;SDS011;4499;48.304;11.902;2023-08-12T06:23:37;7.27;;;4.70;;
8927;SDS011;4499;48.304;11.902;2023-08-12T06:26:05;7.67;;;4.50;;
8927;SDS011;4499;48.304;11.902;2023-08-12T06:28:34;5.40;;;4.50;;
8927;SDS011;4499;48.304;11.902;2023-08-12T06:31:03;5.70;;;4.10;;
8927;SDS011;4499;48.304;11.902;2023-08-12T06:33:31;6.23;;;4.10;;
8927;SDS011;4499;48.304;11.902;2023-08-12T06:35:59;6.07;;;4.40;;
8927;SDS011;4499;48.304;11.902;2023-08-12T06:38:28;4.37;;;3.97;;
8927;SDS011;4499;48.304;11.902;2023-08-12T06:40:56;6.63;;;4.00;;
8927;SDS011;4499;48.304;11.902;2023-08-12T06:43:24;6.67;;;3.97;;
8927;SDS011;4499;48.304;11.902;2023-08-12T06:45:55;6.03;;;3.50;;
8927;SDS011;4499;48.304;11.902;2023-08-12T06:48:26;5.53;;;3.63;;
8927;SDS011;4499;48.304;11.902;2023-08-12T06:50:54;5.37;;;3.97;;
8927;SDS011;4499;48.304;11.902;2023-08-12T06:53:22;4.67;;;3.50;;
8927;SDS011;4499;48.304;11.902;2023-08-12T06:55:52;4.60;;;3.80;;
8927;SDS011;4499;48.304;11.902;2023-08-12T06:58:21;6.77;;;3.83;;
8927;SDS011;4499;48.304;11.902;2023-08-12T07:00:49;5.30;;;3.80;;
8927;SDS011;4499;48.304;11.902;2023-08-12T07:03:19;4.80;;;3.63;;
8927;SDS011;4499;48.304;11.902;2023-08-12T07:05:48;4.87;;;3.83;;
8927;SDS011;4499;48.304;11.902;2023-08-12T07:08:17;4.70;;;3.40;;
8927;SDS011;4499;48.304;11.902;2023-08-12T07:10:45;4.07;;;3.33;;
8927;SDS011;4499;48.304;11.902;2023-08-12T07:13:13;5.97;;;3.63;;
8927;SDS011;4499;48.304;11.902;2023-08-12T07:15:41;3.87;;;3.27;;
8927;SDS011;4499;48.304;11.902;2023-08-12T07:18:09;3.60;;;3.20;;
8927;SDS011;4499;48.304;11.902;2023-08-12T07:20:37;5.87;;;3.20;;
8927;SDS011;4499;48.304;11.902;2023-08-12T07:23:07;5.90;;;3.27;;
8927;SDS011;4499;48.304;11.902;2023-08-12T07:25:35;5.93;;;3.30;;
8927;SDS011;4499;48.304;11.902;2023-08-12T07:28:05;6.57;;;3.20;;
8927;SDS011;4499;48.304;11.902;2023-08-12T07:30:34;4.78;;;2.75;;
8927;SDS011;4499;48.304;11.902;2023-08-12T07:33:04;3.45;;;3.10;;
8927;SDS011;4499;48.304;11.902;2023-08-12T07:35:32;4.65;;;2.85;;
8927;SDS011;4499;48.304;11.902;2023-08-12T07:38:00;4.72;;;2.70;;
8927;SDS011;4499;48.304;11.902;2023-08-12T07:40:30;4.55;;;2.70;;
8927;SDS011;4499;48.304;11.902;2023-08-12T07:42:58;4.25;;;3.00;;
8927;SDS011;4499;48.304;11.902;2023-08-12T07:45:26;4.13;;;2.78;;
8927;SDS011;4499;48.304;11.902;2023-08-12T07:47:54;5.13;;;2.70;;
8927;SDS011;4499;48.304;11.902;2023-08-12T07:50:23;7.18;;;2.67;;
8927;SDS011;4499;48.304;11.902;2023-08-12T07:52:51;6.05;;;3.22;;
8927;SDS011;4499;48.304;11.902;2023-08-12T07:55:19;5.00;;;2.63;;
8927;SDS011;4499;48.304;11.902;2023-08-12T07:57:52;2.60;;;2.40;;
8927;SDS011;4499;48.304;11.902;2023-08-12T08:00:20;3.58;;;2.65;;
8927;SDS011;4499;48.304;11.902;2023-08-12T08:02:48;4.63;;;2.50;;
8927;SDS011;4499;48.304;11.902;2023-08-12T08:05:16;4.28;;;2.90;;
8927;SDS011;4499;48.304;11.902;2023-08-12T08:07:44;8.30;;;2.80;;
8927;SDS011;4499;48.304;11.902;2023-08-12T08:10:13;4.45;;;2.60;;
8927;SDS011;4499;48.304;11.902;2023-08-12T08:12:41;3.17;;;2.58;;
8927;SDS011;4499;48.304;11.902;2023-08-12T08:15:10;4.60;;;2.38;;
8927;SDS011;4499;48.304;11.902;2023-08-12T08:17:39;4.32;;;2.40;;
8927;SDS011;4499;48.304;11.902;2023-08-12T08:20:08;6.40;;;2.85;;
8927;SDS011;4499;48.304;11.902;2023-08-12T08:22:37;4.97;;;2.70;;
8927;SDS011;4499;48.304;11.902;2023-08-12T08:25:06;3.30;;;2.50;;
8927;SDS011;4499;48.304;11.902;2023-08-12T08:27:34;4.63;;;2.60;;
8927;SDS011;4499;48.304;11.902;2023-08-12T08:30:03;5.13;;;2.50;;
8927;SDS011;4499;48.304;11.902;2023-08-12T08:32:33;3.22;;;2.50;;
8927;SDS011;4499;48.304;11.902;2023-08-12T08:35:01;4.05;;;3.00;;
8927;SDS011;4499;48.304;11.902;2023-08-12T08:37:30;4.88;;;2.60;;
8927;SDS011;4499;48.304;11.902;2023-08-12T08:39:58;2.67;;;2.47;;
8927;SDS011;4499;48.304;11.902;2023-08-12T08:42:26;5.68;;;2.60;;
8927;SDS011;4499;48.304;11.902;2023-08-12T08:44:55;4.45;;;2.72;;
8927;SDS011;4499;48.304;11.902;2023-08-12T08:47:27;3.00;;;2.67;;
8927;SDS011;4499;48.304;11.902;2023-08-12T08:49:58;3.78;;;2.70;;
8927;SDS011;4499;48.304;11.902;2023-08-12T08:52:27;3.40;;;2.58;;
8927;SDS011;4499;48.304;11.902;2023-08-12T08:54:56;5.22;;;2.85;;
8927;SDS011;4499;48.304;11.902;2023-08-12T08:57:29;3.28;;;2.83;;
8927;SDS011;4499;48.304;11.902;2023-08-12T09:00:12;4.75;;;2.85;;
8927;SDS011;4499;48.304;11.902;2023-08-12T09:02:43;3.03;;;2.70;;
8927;SDS011;4499;48.304;11.902;2023-08-12T09:05:15;3.22;;;2.75;;
8927;SDS011;4499;48.304;11.902;2023-08-12T09:07:44;4.80;;;2.88;;
8927;SDS011;4499;48.304;11.902;2023-08-12T09:10:13;4.80;;;2.70;;
8927;SDS011;4499;48.304;11.902;2023-08-12T09:12:42;3.85;;;2.38;;
8927;SDS011;4499;48.304;11.902;2023-08-12T09:15:16;6.15;;;2.90;;
8927;SDS011;4499;48.304;11.902;2023-08-12T09:17:50;4.13;;;2.50;;
8927;SDS011;4499;48.304;11.902;2023-08-12T09:20:27;2.53;;;2.33;;
8927;SDS011;4499;48.304;11.902;2023-08-12T09:22:55;2.60;;;2.40;;
8927;SDS011;4499;48.304;11.902;2023-08-12T09:25:25;3.33;;;2.53;;
8927;SDS011;4499;48.304;11.902;2023-08-12T09:27:55;3.42;;;2.33;;
8927;SDS011;4499;48.304;11.902;2023-08-12T09:30:28;2.53;;;2.33;;
8927;SDS011;4499;48.304;11.902;2023-08-12T09:32:58;3.88;;;2.90;;
8927;SDS011;4499;48.304;11.902;2023-08-12T09:35:34;2.65;;;2.28;;
8927;SDS011;4499;48.304;11.902;2023-08-12T09:38:06;2.55;;;2.35;;
8927;SDS011;4499;48.304;11.902;2023-08-12T09:40:36;2.60;;;2.28;;
8927;SDS011;4499;48.304;11.902;2023-08-12T09:43:04;3.85;;;2.80;;
8927;SDS011;4499;48.304;11.902;2023-08-12T09:45:33;3.85;;;2.60;;
8927;SDS011;4499;48.304;11.902;2023-08-12T09:48:03;4.15;;;2.53;;
8927;SDS011;4499;48.304;11.902;2023-08-12T09:50:36;4.55;;;2.58;;
8927;SDS011;4499;48.304;11.902;2023-08-12T09:53:04;2.97;;;2.67;;
8927;SDS011;4499;48.304;11.902;2023-08-12T09:55:33;3.17;;;2.80;;
8927;SDS011;4499;48.304;11.902;2023-08-12T09:58:03;5.18;;;2.50;;
8927;SDS011;4499;48.304;11.902;2023-08-12T10:00:35;3.47;;;2.50;;
8927;SDS011;4499;48.304;11.902;2023-08-12T10:03:03;4.72;;;2.35;;
8927;SDS011;4499;48.304;11.902;2023-08-12T10:05:33;3.42;;;2.53;;
8927;SDS011;4499;48.304;11.902;2023-08-12T10:08:03;3.47;;;2.60;;
8927;SDS011;4499;48.304;11.902;2023-08-12T10:10:34;5.10;;;2.40;;
8927;SDS011;4499;48.304;11.902;2023-08-12T10:13:03;4.65;;;2.60;;
8927;SDS011;4499;48.304;11.902;2023-08-12T10:15:34;2.67;;;2.47;;
8927;SDS011;4499;48.304;11.902;2023-08-12T10:18:03;2.65;;;2.33;;
8927;SDS011;4499;48.304;11.902;2023-08-12T10:20:37;5.43;;;2.50;;
8927;SDS011;4499;48.304;11.902;2023-08-12T10:23:07;3.97;;;2.58;;
8927;SDS011;4499;48.304;11.902;2023-08-12T10:25:42;2.63;;;2.42;;
8927;SDS011;4499;48.304;11.902;2023-08-12T10:28:11;3.80;;;2.50;;
8927;SDS011;4499;48.304;11.902;2023-08-12T10:30:40;4.13;;;2.40;;
8927;SDS011;4499;48.304;11.902;2023-08-12T10:33:09;3.22;;;2.95;;
8927;SDS011;4499;48.304;11.902;2023-08-12T10:35:41;3.38;;;2.70;;
8927;SDS011;4499;48.304;11.902;2023-08-12T10:38:12;3.55;;;2.72;;
8927;SDS011;4499;48.304;11.902;2023-08-12T10:40:42;2.83;;;2.53;;
8927;SDS011;4499;48.304;11.902;2023-08-12T10:43:11;3.00;;;2.70;;
8927;SDS011;4499;48.304;11.902;2023-08-12T10:45:40;3.75;;;2.40;;
8927;SDS011;4499;48.304;11.902;2023-08-12T10:48:15;3.45;;;2.60;;
8927;SDS011;4499;48.304;11.902;2023-08-12T10:50:46;2.90;;;2.70;;
8927;SDS011;4499;48.304;11.902;2023-08-12T10:53:25;2.63;;;2.42;;
8927;SDS011;4499;48.304;11.902;2023-08-12T10:55:58;3.38;;;2.58;;
8927;SDS011;4499;48.304;11.902;2023-08-12T10:58:28;3.95;;;2.70;;
8927;SDS011;4499;48.304;11.902;2023-08-12T11:00:58;3.15;;;2.60;;
8927;SDS011;4499;48.304;11.902;2023-08-12T11:03:26;3.50;;;2.75;;
8927;SDS011;4499;48.304;11.902;2023-08-12T11:06:04;2.85;;;2.55;;
8927;SDS011;4499;48.304;11.902;2023-08-12T11:08:34;4.63;;;3.20;;
8927;SDS011;4499;48.304;11.902;2023-08-12T11:11:03;4.55;;;2.70;;
8927;SDS011;4499;48.304;11.902;2023-08-12T11:13:49;7.05;;;3.00;;
8927;SDS011;4499;48.304;11.902;2023-08-12T11:16:20;3.03;;;2.70;;
8927;SDS011;4499;48.304;11.902;2023-08-12T11:19:00;5.60;;;2.80;;
8927;SDS011;4499;48.304;11.902;2023-08-12T11:21:28;5.70;;;2.72;;
8927;SDS011;4499;48.304;11.902;2023-08-12T11:23:58;4.78;;;2.90;;
8927;SDS011;4499;48.304;11.902;2023-08-12T11:26:27;7.63;;;3.05;;
8927;SDS011;4499;48.304;11.902;2023-08-12T11:28:56;4.38;;;2.90;;
8927;SDS011;4499;48.304;11.902;2023-08-12T11:31:24;3.75;;;2.50;;
8927;SDS011;4499;48.304;11.902;2023-08-12T11:33:54;5.25;;;3.20;;
8927;SDS011;4499;48.304;11.902;2023-08-12T11:36:22;4.45;;;2.72;;
8927;SDS011;4499;48.304;11.902;2023-08-12T11:38:50;4.97;;;2.72;;
8927;SDS011;4499;48.304;11.902;2023-08-12T11:41:20;5.20;;;3.20;;
8927;SDS011;4499;48.304;11.902;2023-08-12T11:43:50;4.13;;;2.95;;
8927;SDS011;4499;48.304;11.902;2023-08-12T11:46:18;6.68;;;2.80;;
8927;SDS011;4499;48.304;11.902;2023-08-12T11:48:46;5.20;;;3.00;;
8927;SDS011;4499;48.304;11.902;2023-08-12T11:51:17;3.97;;;2.83;;
8927;SDS011;4499;48.304;11.902;2023-08-12T11:53:45;4.40;;;2.92;;
8927;SDS011;4499;48.304;11.902;2023-08-12T11:56:13;3.50;;;3.20;;
8927;SDS011;4499;48.304;11.902;2023-08-12T11:58:43;8.07;;;2.60;;
8927;SDS011;4499;48.304;11.902;2023-08-12T12:01:19;5.55;;;2.90;;
8927;SDS011;4499;48.304;11.902;2023-08-12T12:03:50;3.53;;;3.00;;
8927;SDS011;4499;48.304;11.902;2023-08-12T12:06:27;3.67;;;2.70;;
8927;SDS011;4499;48.304;11.902;2023-08-12T12:08:56;3.20;;;2.55;;
8927;SDS011;4499;48.304;11.902;2023-08-12T12:11:29;3.63;;;2.58;;
8927;SDS011;4499;48.304;11.902;2023-08-12T12:14:01;2.40;;;2.20;;
8927;SDS011;4499;48.304;11.902;2023-08-12T12:16:39;4.28;;;2.30;;
8927;SDS011;4499;48.304;11.902;2023-08-12T12:19:09;4.35;;;2.67;;
8927;SDS011;4499;48.304;11.902;2023-08-12T12:21:42;5.07;;;2.30;;
8927;SDS011;4499;48.304;11.902;2023-08-12T12:24:12;3.40;;;2.50;;
8927;SDS011;4499;48.304;11.902;2023-08-12T12:26:41;2.80;;;2.47;;
8927;SDS011;4499;48.304;11.902;2023-08-12T12:29:10;3.30;;;2.30;;
8927;SDS011;4499;48.304;11.902;2023-08-12T12:31:40;3.67;;;2.40;;
8927;SDS011;4499;48.304;11.902;2023-08-12T12:34:09;4.40;;;2.45;;
8927;SDS011;4499;48.304;11.902;2023-08-12T12:36:37;5.30;;;2.70;;
8927;SDS011;4499;48.304;11.902;2023-08-12T12:39:06;4.53;;;2.67;;
8927;SDS011;4499;48.304;11.902;2023-08-12T12:41:34;3.30;;;2.65;;
8927;SDS011;4499;48.304;11.902;2023-08-12T12:44:03;4.18;;;2.70;;
8927;SDS011;4499;48.304;11.902;2023-08-12T12:46:33;2.92;;;2.63;;
8927;SDS011;4499;48.304;11.902;2023-08-12T12:49:03;3.80;;;2.75;;
8927;SDS011;4499;48.304;11.902;2023-08-12T12:51:32;5.57;;;2.88;;
8927;SDS011;4499;48.304;11.902;2023-08-12T12:54:00;2.78;;;2.58;;
8927;SDS011;4499;48.304;11.902;2023-08-12T12:56:28;3.33;;;2.70;;
8927;SDS011;4499;48.304;11.902;2023-08-12T12:58:57;3.72;;;2.75;;
8927;SDS011;4499;48.304;11.902;2023-08-12T13:01:25;2.80;;;2.45;;
8927;SDS011;4499;48.304;11.902;2023-08-12T13:03:55;4.60;;;2.92;;
8927;SDS011;4499;48.304;11.902;2023-08-12T13:06:23;4.03;;;2.60;;
8927;SDS011;4499;48.304;11.902;2023-08-12T13:08:52;3.38;;;2.80;;
8927;SDS011;4499;48.304;11.902;2023-08-12T13:11:20;5.32;;;2.40;;
8927;SDS011;4499;48.304;11.902;2023-08-12T13:13:48;3.63;;;2.67;;
8927;SDS011;4499;48.304;11.902;2023-08-12T13:16:16;3.30;;;2.83;;
8927;SDS011;4499;48.304;11.902;2023-08-12T13:18:45;4.65;;;2.60;;
8927;SDS011;4499;48.304;11.902;2023-08-12T13:21:14;4.18;;;2.55;;
8927;SDS011;4499;48.304;11.902;2023-08-12T13:23:44;4.35;;;2.72;;
8927;SDS011;4499;48.304;11.902;2023-08-12T13:26:12;6.82;;;2.60;;
8927;SDS011;4499;48.304;11.902;2023-08-12T13:28:41;2.55;;;2.35;;
8927;SDS011;4499;48.304;11.902;2023-08-12T13:31:09;3.42;;;2.70;;
8927;SDS011;4499;48.304;11.902;2023-08-12T13:33:37;4.70;;;2.70;;
8927;SDS011;4499;48.304;11.902;2023-08-12T13:36:05;4.75;;;2.80;;
8927;SDS011;4499;48.304;11.902;2023-08-12T13:38:35;4.47;;;2.60;;
8927;SDS011;4499;48.304;11.902;2023-08-12T13:41:03;3.95;;;2.92;;
8927;SDS011;4499;48.304;11.902;2023-08-12T13:43:31;3.65;;;2.95;;
8927;SDS011;4499;48.304;11.902;2023-08-12T13:46:00;5.57;;;2.78;;
8927;SDS011;4499;48.304;11.902;2023-08-12T13:48:28;6.50;;;2.72;;
8927;SDS011;4499;48.304;11.902;2023-08-12T13:50:56;5.18;;;3.00;;
8927;SDS011;4499;48.304;11.902;2023-08-12T13:53:27;4.65;;;2.88;;
8927;SDS011;4499;48.304;11.902;2023-08-12T13:55:56;9.02;;;2.95;;
8927;SDS011;4499;48.304;11.902;2023-08-12T13:58:25;3.17;;;2.75;;
8927;SDS011;4499;48.304;11.902;2023-08-12T14:00:53;3.95;;;2.70;;
8927;SDS011;4499;48.304;11.902;2023-08-12T14:03:21;4.70;;;2.45;;
8927;SDS011;4499;48.304;11.902;2023-08-12T14:05:49;6.72;;;2.78;;
8927;SDS011;4499;48.304;11.902;2023-08-12T14:08:18;3.67;;;2.65;;
8927;SDS011;4499;48.304;11.902;2023-08-12T14:10:46;4.82;;;2.60;;
8927;SDS011;4499;48.304;11.902;2023-08-12T14:13:15;10.20;;;2.72;;
8927;SDS011;4499;48.304;11.902;2023-08-12T14:15:44;4.95;;;2.72;;
8927;SDS011;4499;48.304;11.902;2023-08-12T14:18:13;3.80;;;2.60;;
8927;SDS011;4499;48.304;11.902;2023-08-12T14:20:41;4.47;;;2.53;;
8927;SDS011;4499;48.304;11.902;2023-08-12T14:23:09;5.55;;;2.70;;
8927;SDS011;4499;48.304;11.902;2023-08-12T14:25:39;2.53;;;2.33;;
8927;SDS011;4499;48.304;11.902;2023-08-12T14:28:07;4.28;;;2.55;;
8927;SDS011;4499;48.304;11.902;2023-08-12T14:30:36;5.30;;;2.50;;
8927;SDS011;4499;48.304;11.902;2023-08-12T14:33:05;7.03;;;2.45;;
8927;SDS011;4499;48.304;11.902;2023-08-12T14:35:33;4.30;;;2.42;;
8927;SDS011;4499;48.304;11.902;2023-08-12T14:38:02;5.78;;;2.40;;
8927;SDS011;4499;48.304;11.902;2023-08-12T14:40:30;3.72;;;2.53;;
8927;SDS011;4499;48.304;11.902;2023-08-12T14:42:58;4.88;;;2.63;;
8927;SDS011;4499;48.304;11.902;2023-08-12T14:45:26;6.68;;;2.60;;
8927;SDS011;4499;48.304;11.902;2023-08-12T14:47:56;3.92;;;2.70;;
8927;SDS011;4499;48.304;11.902;2023-08-12T14:50:25;3.93;;;2.70;;
8927;SDS011;4499;48.304;11.902;2023-08-12T14:52:55;3.72;;;2.58;;
8927;SDS011;4499;48.304;11.902;2023-08-12T14:55:23;6.87;;;2.70;;
8927;SDS011;4499;48.304;11.902;2023-08-12T14:57:51;3.37;;;2.80;;
8927;SDS011;4499;48.304;11.902;2023-08-12T15:00:19;5.60;;;2.90;;
8927;SDS011;4499;48.304;11.902;2023-08-12T15:02:47;6.37;;;2.90;;
8927;SDS011;4499;48.304;11.902;2023-08-12T15:05:17;4.33;;;2.60;;
8927;SDS011;4499;48.304;11.902;2023-08-12T15:07:45;3.10;;;2.80;;
8927;SDS011;4499;48.304;11.902;2023-08-12T15:10:14;4.47;;;2.70;;
8927;SDS011;4499;48.304;11.902;2023-08-12T15:12:42;6.03;;;2.77;;